sensor_id;sensor_type;location;lat;lon;timestamp;temperature;humidity
26107;DHT22;13866;50.748;12.630;2023-04-06T00:00:48;1.50;99.90
26107;DHT22;13866;50.748;12.630;2023-04-06T00:03:14;1.50;99.90
26107;DHT22;13866;50.748;12.630;2023-04-06T00:05:40;1.50;99.90
26107;DHT22;13866;50.748;12.630;2023-04-06T00:08:06;1.40;99.90
26107;DHT22;13866;50.748;12.630;2023-04-06T00:10:31;1.40;99.90
26107;DHT22;13866;50.748;12.630;2023-04-06T00:12:58;1.40;99.90
26107;DHT22;13866;50.748;12.630;2023-04-06T00:15:24;1.40;99.90
26107;DHT22;13866;50.748;12.630;2023-04-06T00:17:49;1.40;99.90
26107;DHT22;13866;50.748;12.630;2023-04-06T00:20:15;1.40;99.90
26107;DHT22;13866;50.748;12.630;2023-04-06T00:22:41;1.40;99.90
26107;DHT22;13866;50.748;12.630;2023-04-06T00:25:07;1.40;99.90
26107;DHT22;13866;50.748;12.630;2023-04-06T00:27:33;1.40;99.90
26107;DHT22;13866;50.748;12.630;2023-04-06T00:29:58;1.50;99.90
26107;DHT22;13866;50.748;12.630;2023-04-06T00:32:24;1.50;99.90
26107;DHT22;13866;50.748;12.630;2023-04-06T00:34:49;1.50;99.90
26107;DHT22;13866;50.748;12.630;2023-04-06T00:37:15;1.60;99.90
26107;DHT22;13866;50.748;12.630;2023-04-06T00:39:40;1.50;99.90
26107;DHT22;13866;50.748;12.630;2023-04-06T00:42:12;1.50;99.90
26107;DHT22;13866;50.748;12.630;2023-04-06T00:44:40;1.60;99.90
26107;DHT22;13866;50.748;12.630;2023-04-06T00:47:05;1.50;99.90
26107;DHT22;13866;50.748;12.630;2023-04-06T00:49:32;1.40;99.90
26107;DHT22;13866;50.748;12.630;2023-04-06T00:51:58;1.40;99.90
26107;DHT22;13866;50.748;12.630;2023-04-06T00:54:23;1.40;99.90
26107;DHT22;13866;50.748;12.630;2023-04-06T00:56:49;1.30;99.90
26107;DHT22;13866;50.748;12.630;2023-04-06T00:59:15;1.20;99.90
26107;DHT22;13866;50.748;12.630;2023-04-06T01:01:40;1.30;99.90
26107;DHT22;13866;50.748;12.630;2023-04-06T01:04:06;1.30;99.90
26107;DHT22;13866;50.748;12.630;2023-04-06T01:06:32;1.40;99.90
26107;DHT22;13866;50.748;12.630;2023-04-06T01:08:57;1.30;99.90
26107;DHT22;13866;50.748;12.630;2023-04-06T01:11:23;1.30;99.90
26107;DHT22;13866;50.748;12.630;2023-04-06T01:13:48;1.30;99.90
26107;DHT22;13866;50.748;12.630;2023-04-06T01:16:14;1.30;99.90
26107;DHT22;13866;50.748;12.630;2023-04-06T01:18:40;1.40;99.90
26107;DHT22;13866;50.748;12.630;2023-04-06T01:21:07;1.50;99.90
26107;DHT22;13866;50.748;12.630;2023-04-06T01:23:34;1.40;99.90
26107;DHT22;13866;50.748;12.630;2023-04-06T01:25:59;1.40;99.90
26107;DHT22;13866;50.748;12.630;2023-04-06T01:28:25;1.40;99.90
26107;DHT22;13866;50.748;12.630;2023-04-06T01:30:50;1.40;99.90
26107;DHT22;13866;50.748;12.630;2023-04-06T01:33:16;1.40;99.90
26107;DHT22;13866;50.748;12.630;2023-04-06T01:35:41;1.30;99.90
26107;DHT22;13866;50.748;12.630;2023-04-06T01:38:07;1.30;99.90
26107;DHT22;13866;50.748;12.630;2023-04-06T01:40:32;1.40;99.90
26107;DHT22;13866;50.748;12.630;2023-04-06T01:42:58;1.40;99.90
26107;DHT22;13866;50.748;12.630;2023-04-06T01:45:23;1.40;99.90
26107;DHT22;13866;50.748;12.630;2023-04-06T01:47:49;1.40;99.90
26107;DHT22;13866;50.748;12.630;2023-04-06T01:50:14;1.40;99.90
26107;DHT22;13866;50.748;12.630;2023-04-06T01:52:41;1.40;99.90
26107;DHT22;13866;50.748;12.630;2023-04-06T01:55:06;1.40;99.90
26107;DHT22;13866;50.748;12.630;2023-04-06T01:57:32;1.40;99.90
26107;DHT22;13866;50.748;12.630;2023-04-06T01:59:57;1.30;99.90
26107;DHT22;13866;50.748;12.630;2023-04-06T02:02:23;1.30;99.90
26107;DHT22;13866;50.748;12.630;2023-04-06T02:04:48;1.30;99.90
26107;DHT22;13866;50.748;12.630;2023-04-06T02:07:14;1.30;99.90
26107;DHT22;13866;50.748;12.630;2023-04-06T02:09:39;1.30;99.90
26107;DHT22;13866;50.748;12.630;2023-04-06T02:12:05;1.30;99.90
26107;DHT22;13866;50.748;12.630;2023-04-06T02:14:30;1.20;99.90
26107;DHT22;13866;50.748;12.630;2023-04-06T02:16:56;1.20;99.90
26107;DHT22;13866;50.748;12.630;2023-04-06T02:19:21;1.20;99.90
26107;DHT22;13866;50.748;12.630;2023-04-06T02:21:47;1.30;99.90
26107;DHT22;13866;50.748;12.630;2023-04-06T02:24:13;1.20;99.90
26107;DHT22;13866;50.748;12.630;2023-04-06T02:26:38;1.30;99.90
26107;DHT22;13866;50.748;12.630;2023-04-06T02:29:04;1.30;99.90
26107;DHT22;13866;50.748;12.630;2023-04-06T02:31:31;1.30;99.90
26107;DHT22;13866;50.748;12.630;2023-04-06T02:33:56;1.40;99.90
26107;DHT22;13866;50.748;12.630;2023-04-06T02:36:21;1.50;99.90
26107;DHT22;13866;50.748;12.630;2023-04-06T02:38:47;1.40;99.90
26107;DHT22;13866;50.748;12.630;2023-04-06T02:41:12;1.30;99.90
26107;DHT22;13866;50.748;12.630;2023-04-06T02:43:38;1.30;99.90
26107;DHT22;13866;50.748;12.630;2023-04-06T02:46:03;1.20;99.90
26107;DHT22;13866;50.748;12.630;2023-04-06T02:48:29;1.20;99.90
26107;DHT22;13866;50.748;12.630;2023-04-06T02:50:55;1.10;99.90
26107;DHT22;13866;50.748;12.630;2023-04-06T02:53:20;1.10;99.90
26107;DHT22;13866;50.748;12.630;2023-04-06T02:55:46;1.10;99.90
26107;DHT22;13866;50.748;12.630;2023-04-06T02:58:11;1.10;99.90
26107;DHT22;13866;50.748;12.630;2023-04-06T03:00:37;1.10;99.90
26107;DHT22;13866;50.748;12.630;2023-04-06T03:03:03;1.10;99.90
26107;DHT22;13866;50.748;12.630;2023-04-06T03:05:28;1.10;99.90
26107;DHT22;13866;50.748;12.630;2023-04-06T03:07:54;1.10;99.90
26107;DHT22;13866;50.748;12.630;2023-04-06T03:10:19;1.00;99.90
26107;DHT22;13866;50.748;12.630;2023-04-06T03:12:45;1.00;99.90
26107;DHT22;13866;50.748;12.630;2023-04-06T03:15:10;1.00;99.90
26107;DHT22;13866;50.748;12.630;2023-04-06T03:17:36;1.00;99.90
26107;DHT22;13866;50.748;12.630;2023-04-06T03:20:02;1.00;99.90
26107;DHT22;13866;50.748;12.630;2023-04-06T03:22:29;1.00;99.90
26107;DHT22;13866;50.748;12.630;2023-04-06T03:24:54;0.90;99.90
26107;DHT22;13866;50.748;12.630;2023-04-06T03:27:20;0.80;99.90
26107;DHT22;13866;50.748;12.630;2023-04-06T03:29:45;0.80;99.90
26107;DHT22;13866;50.748;12.630;2023-04-06T03:32:11;0.70;99.90
26107;DHT22;13866;50.748;12.630;2023-04-06T03:34:37;0.70;99.90
26107;DHT22;13866;50.748;12.630;2023-04-06T03:37:03;0.70;99.90
26107;DHT22;13866;50.748;12.630;2023-04-06T03:39:28;0.60;99.90
26107;DHT22;13866;50.748;12.630;2023-04-06T03:41:54;0.70;99.90
26107;DHT22;13866;50.748;12.630;2023-04-06T03:44:19;0.70;99.90
26107;DHT22;13866;50.748;12.630;2023-04-06T03:46:45;0.70;99.90
26107;DHT22;13866;50.748;12.630;2023-04-06T03:49:10;0.70;99.90
26107;DHT22;13866;50.748;12.630;2023-04-06T03:51:36;0.70;99.90
26107;DHT22;13866;50.748;12.630;2023-04-06T03:54:01;0.70;99.90
26107;DHT22;13866;50.748;12.630;2023-04-06T03:56:27;0.60;99.90
26107;DHT22;13866;50.748;12.630;2023-04-06T03:58:52;0.50;99.90
26107;DHT22;13866;50.748;12.630;2023-04-06T04:01:18;0.50;99.90
26107;DHT22;13866;50.748;12.630;2023-04-06T04:03:44;0.50;99.90
26107;DHT22;13866;50.748;12.630;2023-04-06T04:06:09;0.40;99.90
26107;DHT22;13866;50.748;12.630;2023-04-06T04:08:35;0.40;99.90
26107;DHT22;13866;50.748;12.630;2023-04-06T04:11:01;0.20;99.90
26107;DHT22;13866;50.748;12.630;2023-04-06T04:13:26;0.20;99.90
26107;DHT22;13866;50.748;12.630;2023-04-06T04:15:52;0.30;99.90
26107;DHT22;13866;50.748;12.630;2023-04-06T04:18:18;0.20;99.90
26107;DHT22;13866;50.748;12.630;2023-04-06T04:20:43;0.20;99.90
26107;DHT22;13866;50.748;12.630;2023-04-06T04:23:09;0.10;99.90
26107;DHT22;13866;50.748;12.630;2023-04-06T04:25:35;0.00;99.90
26107;DHT22;13866;50.748;12.630;2023-04-06T04:28:00;0.00;99.90
26107;DHT22;13866;50.748;12.630;2023-04-06T04:30:26;-0.10;99.90
26107;DHT22;13866;50.748;12.630;2023-04-06T04:32:51;-0.10;99.90
26107;DHT22;13866;50.748;12.630;2023-04-06T04:35:17;-0.10;99.90
26107;DHT22;13866;50.748;12.630;2023-04-06T04:37:42;-0.10;99.90
26107;DHT22;13866;50.748;12.630;2023-04-06T04:40:08;-0.20;99.90
26107;DHT22;13866;50.748;12.630;2023-04-06T04:42:34;-0.20;99.90
26107;DHT22;13866;50.748;12.630;2023-04-06T04:44:59;-0.10;99.90
26107;DHT22;13866;50.748;12.630;2023-04-06T04:47:25;-0.20;99.90
26107;DHT22;13866;50.748;12.630;2023-04-06T04:49:50;-0.10;99.90
26107;DHT22;13866;50.748;12.630;2023-04-06T04:52:16;-0.20;99.90
26107;DHT22;13866;50.748;12.630;2023-04-06T04:54:41;-0.20;99.90
26107;DHT22;13866;50.748;12.630;2023-04-06T04:57:07;-0.20;99.90
26107;DHT22;13866;50.748;12.630;2023-04-06T04:59:34;-0.20;99.90
26107;DHT22;13866;50.748;12.630;2023-04-06T05:02:00;-0.20;99.90
26107;DHT22;13866;50.748;12.630;2023-04-06T05:04:26;-0.20;99.90
26107;DHT22;13866;50.748;12.630;2023-04-06T05:07:05;-0.30;99.90
26107;DHT22;13866;50.748;12.630;2023-04-06T05:09:31;-0.30;99.90
26107;DHT22;13866;50.748;12.630;2023-04-06T05:11:57;-0.30;99.90
26107;DHT22;13866;50.748;12.630;2023-04-06T05:14:23;-0.30;99.90
26107;DHT22;13866;50.748;12.630;2023-04-06T05:16:48;-0.30;99.90
26107;DHT22;13866;50.748;12.630;2023-04-06T05:19:14;-0.30;99.90
26107;DHT22;13866;50.748;12.630;2023-04-06T05:21:40;-0.40;99.90
26107;DHT22;13866;50.748;12.630;2023-04-06T05:24:05;-0.30;99.90
26107;DHT22;13866;50.748;12.630;2023-04-06T05:26:31;-0.30;99.90
26107;DHT22;13866;50.748;12.630;2023-04-06T05:28:56;-0.30;99.90
26107;DHT22;13866;50.748;12.630;2023-04-06T05:31:22;-0.30;99.90
26107;DHT22;13866;50.748;12.630;2023-04-06T05:33:48;-0.30;99.90
26107;DHT22;13866;50.748;12.630;2023-04-06T05:36:13;0.00;99.90
26107;DHT22;13866;50.748;12.630;2023-04-06T05:38:39;0.00;99.90
26107;DHT22;13866;50.748;12.630;2023-04-06T05:41:04;0.10;99.90
26107;DHT22;13866;50.748;12.630;2023-04-06T05:43:30;0.30;99.90
26107;DHT22;13866;50.748;12.630;2023-04-06T05:45:56;0.50;99.90
26107;DHT22;13866;50.748;12.630;2023-04-06T05:48:21;0.80;99.90
26107;DHT22;13866;50.748;12.630;2023-04-06T05:50:50;1.00;99.90
26107;DHT22;13866;50.748;12.630;2023-04-06T05:53:16;1.30;99.90
26107;DHT22;13866;50.748;12.630;2023-04-06T05:55:42;1.50;99.90
26107;DHT22;13866;50.748;12.630;2023-04-06T05:58:07;1.60;99.90
26107;DHT22;13866;50.748;12.630;2023-04-06T06:00:33;1.80;99.90
26107;DHT22;13866;50.748;12.630;2023-04-06T06:02:58;2.10;99.90
26107;DHT22;13866;50.748;12.630;2023-04-06T06:05:24;2.40;99.90
26107;DHT22;13866;50.748;12.630;2023-04-06T06:07:49;2.70;99.90
26107;DHT22;13866;50.748;12.630;2023-04-06T06:10:15;2.90;99.90
26107;DHT22;13866;50.748;12.630;2023-04-06T06:12:41;3.30;99.90
26107;DHT22;13866;50.748;12.630;2023-04-06T06:15:06;3.50;99.90
26107;DHT22;13866;50.748;12.630;2023-04-06T06:17:32;3.80;99.90
26107;DHT22;13866;50.748;12.630;2023-04-06T06:19:58;3.90;99.90
26107;DHT22;13866;50.748;12.630;2023-04-06T06:22:23;4.00;99.90
26107;DHT22;13866;50.748;12.630;2023-04-06T06:24:49;4.10;99.90
26107;DHT22;13866;50.748;12.630;2023-04-06T06:27:15;4.10;99.90
26107;DHT22;13866;50.748;12.630;2023-04-06T06:29:41;4.00;99.90
26107;DHT22;13866;50.748;12.630;2023-04-06T06:32:06;4.30;99.90
26107;DHT22;13866;50.748;12.630;2023-04-06T06:34:34;4.30;99.90
26107;DHT22;13866;50.748;12.630;2023-04-06T06:37:00;4.30;99.90
26107;DHT22;13866;50.748;12.630;2023-04-06T06:39:25;4.60;99.90
26107;DHT22;13866;50.748;12.630;2023-04-06T06:41:51;5.00;99.90
26107;DHT22;13866;50.748;12.630;2023-04-06T06:44:17;5.40;99.90
26107;DHT22;13866;50.748;12.630;2023-04-06T06:46:42;5.60;99.90
26107;DHT22;13866;50.748;12.630;2023-04-06T06:49:08;6.00;99.90
26107;DHT22;13866;50.748;12.630;2023-04-06T06:51:34;6.30;99.90
26107;DHT22;13866;50.748;12.630;2023-04-06T06:53:59;6.40;99.90
26107;DHT22;13866;50.748;12.630;2023-04-06T06:56:25;6.20;99.90
26107;DHT22;13866;50.748;12.630;2023-04-06T06:58:51;6.10;99.90
26107;DHT22;13866;50.748;12.630;2023-04-06T07:01:17;6.00;99.90
26107;DHT22;13866;50.748;12.630;2023-04-06T07:03:42;5.90;99.90
26107;DHT22;13866;50.748;12.630;2023-04-06T07:06:08;5.90;99.90
26107;DHT22;13866;50.748;12.630;2023-04-06T07:08:33;5.60;99.90
26107;DHT22;13866;50.748;12.630;2023-04-06T07:10:59;5.60;99.90
26107;DHT22;13866;50.748;12.630;2023-04-06T07:13:24;5.70;99.90
26107;DHT22;13866;50.748;12.630;2023-04-06T07:15:52;5.80;99.90
26107;DHT22;13866;50.748;12.630;2023-04-06T07:18:19;6.00;99.90
26107;DHT22;13866;50.748;12.630;2023-04-06T07:20:45;6.20;99.90
26107;DHT22;13866;50.748;12.630;2023-04-06T07:23:10;6.30;99.90
26107;DHT22;13866;50.748;12.630;2023-04-06T07:25:36;6.40;99.90
26107;DHT22;13866;50.748;12.630;2023-04-06T07:28:03;6.30;99.90
26107;DHT22;13866;50.748;12.630;2023-04-06T07:30:29;6.30;99.90
26107;DHT22;13866;50.748;12.630;2023-04-06T07:32:54;6.40;99.90
26107;DHT22;13866;50.748;12.630;2023-04-06T07:35:25;6.40;99.90
26107;DHT22;13866;50.748;12.630;2023-04-06T07:37:52;6.30;99.90
26107;DHT22;13866;50.748;12.630;2023-04-06T07:40:18;6.20;99.90
26107;DHT22;13866;50.748;12.630;2023-04-06T07:42:44;6.20;99.90
26107;DHT22;13866;50.748;12.630;2023-04-06T07:45:10;6.60;99.90
26107;DHT22;13866;50.748;12.630;2023-04-06T07:47:36;7.00;99.90
26107;DHT22;13866;50.748;12.630;2023-04-06T07:50:01;7.20;99.90
26107;DHT22;13866;50.748;12.630;2023-04-06T07:52:27;7.20;99.90
26107;DHT22;13866;50.748;12.630;2023-04-06T07:54:52;7.50;99.90
26107;DHT22;13866;50.748;12.630;2023-04-06T07:57:18;8.00;99.90
26107;DHT22;13866;50.748;12.630;2023-04-06T07:59:43;8.30;99.90
26107;DHT22;13866;50.748;12.630;2023-04-06T08:02:09;8.30;99.90
26107;DHT22;13866;50.748;12.630;2023-04-06T08:04:35;8.10;99.90
26107;DHT22;13866;50.748;12.630;2023-04-06T08:07:01;7.80;99.90
26107;DHT22;13866;50.748;12.630;2023-04-06T08:09:26;7.70;99.90
26107;DHT22;13866;50.748;12.630;2023-04-06T08:11:52;7.50;99.90
26107;DHT22;13866;50.748;12.630;2023-04-06T08:14:18;7.50;99.90
26107;DHT22;13866;50.748;12.630;2023-04-06T08:16:43;7.40;99.90
26107;DHT22;13866;50.748;12.630;2023-04-06T08:19:09;7.30;99.90
26107;DHT22;13866;50.748;12.630;2023-04-06T08:21:35;7.30;99.90
26107;DHT22;13866;50.748;12.630;2023-04-06T08:24:01;7.60;99.90
26107;DHT22;13866;50.748;12.630;2023-04-06T08:26:26;7.70;99.90
26107;DHT22;13866;50.748;12.630;2023-04-06T08:28:52;8.20;99.90
26107;DHT22;13866;50.748;12.630;2023-04-06T08:31:18;8.60;99.90
26107;DHT22;13866;50.748;12.630;2023-04-06T08:33:43;8.90;99.90
26107;DHT22;13866;50.748;12.630;2023-04-06T08:36:10;8.60;99.90
26107;DHT22;13866;50.748;12.630;2023-04-06T08:38:36;8.60;99.90
26107;DHT22;13866;50.748;12.630;2023-04-06T08:41:15;8.60;99.90
26107;DHT22;13866;50.748;12.630;2023-04-06T08:43:48;9.00;99.90
26107;DHT22;13866;50.748;12.630;2023-04-06T08:46:17;9.60;99.90
26107;DHT22;13866;50.748;12.630;2023-04-06T08:48:53;9.90;99.90
26107;DHT22;13866;50.748;12.630;2023-04-06T08:51:21;10.20;99.90
26107;DHT22;13866;50.748;12.630;2023-04-06T08:53:49;10.10;99.90
26107;DHT22;13866;50.748;12.630;2023-04-06T08:56:29;9.60;99.90
26107;DHT22;13866;50.748;12.630;2023-04-06T08:59:00;9.30;99.90
26107;DHT22;13866;50.748;12.630;2023-04-06T09:01:27;8.90;99.90
26107;DHT22;13866;50.748;12.630;2023-04-06T09:03:59;8.80;99.90
26107;DHT22;13866;50.748;12.630;2023-04-06T09:06:37;8.80;99.90
26107;DHT22;13866;50.748;12.630;2023-04-06T09:09:03;8.90;99.90
26107;DHT22;13866;50.748;12.630;2023-04-06T09:11:58;8.80;99.90
26107;DHT22;13866;50.748;12.630;2023-04-06T09:14:36;9.00;99.90
26107;DHT22;13866;50.748;12.630;2023-04-06T09:17:23;9.20;99.90
26107;DHT22;13866;50.748;12.630;2023-04-06T09:19:59;9.20;99.90
26107;DHT22;13866;50.748;12.630;2023-04-06T09:22:47;9.50;99.90
26107;DHT22;13866;50.748;12.630;2023-04-06T09:25:19;9.30;99.90
26107;DHT22;13866;50.748;12.630;2023-04-06T09:27:46;9.70;99.90
26107;DHT22;13866;50.748;12.630;2023-04-06T09:30:13;9.50;99.90
26107;DHT22;13866;50.748;12.630;2023-04-06T09:32:55;9.30;99.90
26107;DHT22;13866;50.748;12.630;2023-04-06T09:35:22;9.10;99.90
26107;DHT22;13866;50.748;12.630;2023-04-06T09:37:52;9.40;99.90
26107;DHT22;13866;50.748;12.630;2023-04-06T09:40:26;9.80;99.90
26107;DHT22;13866;50.748;12.630;2023-04-06T09:43:02;10.10;99.90
26107;DHT22;13866;50.748;12.630;2023-04-06T09:45:38;10.50;99.90
26107;DHT22;13866;50.748;12.630;2023-04-06T09:48:04;10.80;99.90
26107;DHT22;13866;50.748;12.630;2023-04-06T09:50:38;11.10;99.90
26107;DHT22;13866;50.748;12.630;2023-04-06T09:53:06;11.40;99.90
26107;DHT22;13866;50.748;12.630;2023-04-06T09:55:40;11.50;99.90
26107;DHT22;13866;50.748;12.630;2023-04-06T09:58:13;11.50;99.90
26107;DHT22;13866;50.748;12.630;2023-04-06T10:01:08;11.50;99.90
26107;DHT22;13866;50.748;12.630;2023-04-06T10:06:23;11.60;98.30
26107;DHT22;13866;50.748;12.630;2023-04-06T10:08:52;10.60;99.40
26107;DHT22;13866;50.748;12.630;2023-04-06T10:11:21;11.20;99.90
26107;DHT22;13866;50.748;12.630;2023-04-06T10:13:48;11.50;99.90
26107;DHT22;13866;50.748;12.630;2023-04-06T10:16:17;11.80;99.90
26107;DHT22;13866;50.748;12.630;2023-04-06T10:18:52;10.90;98.90
26107;DHT22;13866;50.748;12.630;2023-04-06T10:21:23;11.50;97.30
26107;DHT22;13866;50.748;12.630;2023-04-06T10:24:01;12.00;99.00
26107;DHT22;13866;50.748;12.630;2023-04-06T10:26:30;12.50;99.90
26107;DHT22;13866;50.748;12.630;2023-04-06T10:29:04;12.90;99.90
26107;DHT22;13866;50.748;12.630;2023-04-06T10:31:31;13.00;97.10
26107;DHT22;13866;50.748;12.630;2023-04-06T10:34:02;13.10;95.80
26107;DHT22;13866;50.748;12.630;2023-04-06T10:36:35;13.10;96.80
26107;DHT22;13866;50.748;12.630;2023-04-06T10:39:05;13.10;96.20
26107;DHT22;13866;50.748;12.630;2023-04-06T10:41:36;13.30;95.70
26107;DHT22;13866;50.748;12.630;2023-04-06T10:44:16;13.50;92.70
26107;DHT22;13866;50.748;12.630;2023-04-06T10:46:53;13.10;92.40
26107;DHT22;13866;50.748;12.630;2023-04-06T10:49:22;13.20;93.90
26107;DHT22;13866;50.748;12.630;2023-04-06T10:51:58;13.20;94.40
26107;DHT22;13866;50.748;12.630;2023-04-06T10:54:29;13.00;91.90
26107;DHT22;13866;50.748;12.630;2023-04-06T10:57:00;12.70;92.00
26107;DHT22;13866;50.748;12.630;2023-04-06T10:59:31;13.20;90.60
26107;DHT22;13866;50.748;12.630;2023-04-06T11:02:00;13.10;94.40
26107;DHT22;13866;50.748;12.630;2023-04-06T11:04:26;12.90;88.30
26107;DHT22;13866;50.748;12.630;2023-04-06T11:07:03;12.90;92.10
26107;DHT22;13866;50.748;12.630;2023-04-06T11:09:39;13.00;91.10
26107;DHT22;13866;50.748;12.630;2023-04-06T11:12:21;13.10;92.40
26107;DHT22;13866;50.748;12.630;2023-04-06T11:15:00;12.80;93.50
26107;DHT22;13866;50.748;12.630;2023-04-06T11:17:30;12.80;90.30
26107;DHT22;13866;50.748;12.630;2023-04-06T11:19:56;13.00;90.10
26107;DHT22;13866;50.748;12.630;2023-04-06T11:22:22;13.50;90.60
26107;DHT22;13866;50.748;12.630;2023-04-06T11:24:47;13.50;89.00
26107;DHT22;13866;50.748;12.630;2023-04-06T11:27:14;13.30;85.30
26107;DHT22;13866;50.748;12.630;2023-04-06T11:29:42;13.20;84.20
26107;DHT22;13866;50.748;12.630;2023-04-06T11:32:07;13.10;87.70
26107;DHT22;13866;50.748;12.630;2023-04-06T11:34:38;13.00;86.50
26107;DHT22;13866;50.748;12.630;2023-04-06T11:37:08;13.00;79.30
26107;DHT22;13866;50.748;12.630;2023-04-06T11:39:51;13.10;89.50
26107;DHT22;13866;50.748;12.630;2023-04-06T11:42:28;13.00;84.10
26107;DHT22;13866;50.748;12.630;2023-04-06T11:44:56;13.20;90.10
26107;DHT22;13866;50.748;12.630;2023-04-06T11:47:31;13.50;91.00
26107;DHT22;13866;50.748;12.630;2023-04-06T11:50:08;13.40;85.60
26107;DHT22;13866;50.748;12.630;2023-04-06T11:52:38;13.50;87.20
26107;DHT22;13866;50.748;12.630;2023-04-06T11:55:36;13.30;90.10
26107;DHT22;13866;50.748;12.630;2023-04-06T11:58:02;13.30;90.60
26107;DHT22;13866;50.748;12.630;2023-04-06T12:00:28;13.30;90.50
26107;DHT22;13866;50.748;12.630;2023-04-06T12:02:59;13.00;83.30
26107;DHT22;13866;50.748;12.630;2023-04-06T12:05:25;13.00;86.60
26107;DHT22;13866;50.748;12.630;2023-04-06T12:07:50;13.20;89.00
26107;DHT22;13866;50.748;12.630;2023-04-06T12:10:16;13.30;83.80
26107;DHT22;13866;50.748;12.630;2023-04-06T12:12:41;13.30;85.20
26107;DHT22;13866;50.748;12.630;2023-04-06T12:15:07;13.40;81.90
26107;DHT22;13866;50.748;12.630;2023-04-06T12:17:33;13.20;89.50
26107;DHT22;13866;50.748;12.630;2023-04-06T12:19:58;13.00;90.50
26107;DHT22;13866;50.748;12.630;2023-04-06T12:22:24;12.80;90.80
26107;DHT22;13866;50.748;12.630;2023-04-06T12:24:49;12.90;90.60
26107;DHT22;13866;50.748;12.630;2023-04-06T12:27:15;12.90;88.50
26107;DHT22;13866;50.748;12.630;2023-04-06T12:29:41;12.50;81.20
26107;DHT22;13866;50.748;12.630;2023-04-06T12:32:06;12.70;83.30
26107;DHT22;13866;50.748;12.630;2023-04-06T12:34:32;13.10;86.20
26107;DHT22;13866;50.748;12.630;2023-04-06T12:36:57;13.30;89.00
26107;DHT22;13866;50.748;12.630;2023-04-06T12:39:23;13.60;87.60
26107;DHT22;13866;50.748;12.630;2023-04-06T12:41:49;13.60;82.90
26107;DHT22;13866;50.748;12.630;2023-04-06T12:44:14;13.70;80.50
26107;DHT22;13866;50.748;12.630;2023-04-06T12:46:40;13.80;87.10
26107;DHT22;13866;50.748;12.630;2023-04-06T12:49:06;13.80;82.60
26107;DHT22;13866;50.748;12.630;2023-04-06T12:51:31;14.00;80.10
26107;DHT22;13866;50.748;12.630;2023-04-06T12:53:57;13.10;79.60
26107;DHT22;13866;50.748;12.630;2023-04-06T12:56:22;13.40;84.70
26107;DHT22;13866;50.748;12.630;2023-04-06T12:58:50;13.20;85.00
26107;DHT22;13866;50.748;12.630;2023-04-06T13:01:15;13.20;85.10
26107;DHT22;13866;50.748;12.630;2023-04-06T13:03:41;13.30;84.40
26107;DHT22;13866;50.748;12.630;2023-04-06T13:06:07;13.60;86.40
26107;DHT22;13866;50.748;12.630;2023-04-06T13:08:34;13.90;84.60
26107;DHT22;13866;50.748;12.630;2023-04-06T13:10:59;13.80;84.60
26107;DHT22;13866;50.748;12.630;2023-04-06T13:13:27;13.90;75.60
26107;DHT22;13866;50.748;12.630;2023-04-06T13:15:54;13.60;76.30
26107;DHT22;13866;50.748;12.630;2023-04-06T13:18:21;13.10;84.90
26107;DHT22;13866;50.748;12.630;2023-04-06T13:20:48;13.30;84.30
26107;DHT22;13866;50.748;12.630;2023-04-06T13:23:14;13.30;85.40
26107;DHT22;13866;50.748;12.630;2023-04-06T13:25:39;12.70;75.90
26107;DHT22;13866;50.748;12.630;2023-04-06T13:28:05;12.80;76.70
26107;DHT22;13866;50.748;12.630;2023-04-06T13:30:30;12.80;80.20
26107;DHT22;13866;50.748;12.630;2023-04-06T13:32:56;12.60;84.80
26107;DHT22;13866;50.748;12.630;2023-04-06T13:35:21;12.80;86.60
26107;DHT22;13866;50.748;12.630;2023-04-06T13:37:47;13.00;84.20
26107;DHT22;13866;50.748;12.630;2023-04-06T13:40:13;13.20;85.70
26107;DHT22;13866;50.748;12.630;2023-04-06T13:42:39;13.30;84.50
26107;DHT22;13866;50.748;12.630;2023-04-06T13:45:06;13.00;83.20
26107;DHT22;13866;50.748;12.630;2023-04-06T13:47:32;13.20;85.10
26107;DHT22;13866;50.748;12.630;2023-04-06T13:49:58;13.10;80.20
26107;DHT22;13866;50.748;12.630;2023-04-06T13:52:23;13.20;77.80
26107;DHT22;13866;50.748;12.630;2023-04-06T13:54:49;12.40;75.50
26107;DHT22;13866;50.748;12.630;2023-04-06T13:57:15;12.60;81.30
26107;DHT22;13866;50.748;12.630;2023-04-06T13:59:40;12.70;77.90
26107;DHT22;13866;50.748;12.630;2023-04-06T14:02:08;12.60;74.90
26107;DHT22;13866;50.748;12.630;2023-04-06T14:04:34;12.60;73.00
26107;DHT22;13866;50.748;12.630;2023-04-06T14:07:00;12.40;72.10
26107;DHT22;13866;50.748;12.630;2023-04-06T14:09:26;12.60;78.10
26107;DHT22;13866;50.748;12.630;2023-04-06T14:11:52;12.70;78.20
26107;DHT22;13866;50.748;12.630;2023-04-06T14:14:18;12.80;81.10
26107;DHT22;13866;50.748;12.630;2023-04-06T14:16:44;12.90;78.80
26107;DHT22;13866;50.748;12.630;2023-04-06T14:19:10;12.70;83.30
26107;DHT22;13866;50.748;12.630;2023-04-06T14:21:41;12.60;79.70
26107;DHT22;13866;50.748;12.630;2023-04-06T14:24:07;12.50;83.40
26107;DHT22;13866;50.748;12.630;2023-04-06T14:26:33;12.50;80.20
26107;DHT22;13866;50.748;12.630;2023-04-06T14:28:59;12.30;83.90
26107;DHT22;13866;50.748;12.630;2023-04-06T14:31:25;12.20;82.20
26107;DHT22;13866;50.748;12.630;2023-04-06T14:33:51;12.20;80.90
26107;DHT22;13866;50.748;12.630;2023-04-06T14:36:17;12.00;78.60
26107;DHT22;13866;50.748;12.630;2023-04-06T14:38:43;12.00;78.10
26107;DHT22;13866;50.748;12.630;2023-04-06T14:41:22;12.10;86.60
26107;DHT22;13866;50.748;12.630;2023-04-06T14:43:49;12.10;81.50
26107;DHT22;13866;50.748;12.630;2023-04-06T14:46:14;12.10;78.80
26107;DHT22;13866;50.748;12.630;2023-04-06T14:48:41;12.10;79.30
26107;DHT22;13866;50.748;12.630;2023-04-06T14:51:06;12.00;75.20
26107;DHT22;13866;50.748;12.630;2023-04-06T14:53:32;11.60;74.10
26107;DHT22;13866;50.748;12.630;2023-04-06T14:55:58;11.40;80.80
26107;DHT22;13866;50.748;12.630;2023-04-06T14:58:25;11.60;78.40
26107;DHT22;13866;50.748;12.630;2023-04-06T15:01:00;11.80;80.30
26107;DHT22;13866;50.748;12.630;2023-04-06T15:03:27;11.70;78.80
26107;DHT22;13866;50.748;12.630;2023-04-06T15:05:53;11.70;77.40
26107;DHT22;13866;50.748;12.630;2023-04-06T15:08:19;11.30;72.60
26107;DHT22;13866;50.748;12.630;2023-04-06T15:10:51;11.10;74.70
26107;DHT22;13866;50.748;12.630;2023-04-06T15:13:17;11.00;76.90
26107;DHT22;13866;50.748;12.630;2023-04-06T15:15:44;11.10;76.50
26107;DHT22;13866;50.748;12.630;2023-04-06T15:18:10;10.90;77.10
26107;DHT22;13866;50.748;12.630;2023-04-06T15:20:36;11.00;81.60
26107;DHT22;13866;50.748;12.630;2023-04-06T15:23:02;11.30;82.30
26107;DHT22;13866;50.748;12.630;2023-04-06T15:25:28;11.50;82.40
26107;DHT22;13866;50.748;12.630;2023-04-06T15:27:54;11.50;81.00